createdAt,value
2018-05-02T00:02:16.572Z,99.90
2018-05-02T00:04:44.046Z,99.90
2018-05-02T00:07:11.511Z,99.90
2018-05-02T00:09:38.943Z,99.90
2018-05-02T00:12:06.439Z,99.90
2018-05-02T00:14:33.870Z,99.90
2018-05-02T00:17:01.382Z,99.90
2018-05-02T00:19:28.815Z,99.90
2018-05-02T00:21:56.243Z,99.90
2018-05-02T00:24:23.687Z,99.90
2018-05-02T00:26:51.881Z,99.90
2018-05-02T00:29:19.374Z,99.90
2018-05-02T00:31:46.841Z,99.90
2018-05-02T00:34:14.651Z,99.90
2018-05-02T00:36:42.886Z,99.90
2018-05-02T00:39:10.326Z,99.90
2018-05-02T00:41:37.759Z,99.90
2018-05-02T00:44:05.987Z,99.90
2018-05-02T00:46:33.420Z,99.90
2018-05-02T00:49:12.723Z,99.90
2018-05-02T00:51:40.926Z,99.90
2018-05-02T00:54:08.428Z,99.90
2018-05-02T00:56:35.871Z,99.90
2018-05-02T00:59:03.342Z,99.90
2018-05-02T01:01:30.786Z,99.90
2018-05-02T01:03:58.226Z,99.90
2018-05-02T01:06:25.654Z,99.90
2018-05-02T01:08:53.093Z,99.90
2018-05-02T01:11:20.529Z,99.90
2018-05-02T01:13:48.007Z,99.90
2018-05-02T01:16:15.448Z,99.90
2018-05-02T01:18:42.887Z,99.90
2018-05-02T01:21:11.078Z,99.90
2018-05-02T01:23:38.565Z,99.90
2018-05-02T01:26:06.006Z,99.90
2018-05-02T01:28:33.442Z,99.90
2018-05-02T01:31:01.674Z,99.90
2018-05-02T01:33:29.118Z,99.90
2018-05-02T01:35:56.583Z,99.90
2018-05-02T01:38:24.027Z,99.90
2018-05-02T01:40:51.463Z,99.90
2018-05-02T01:43:19.674Z,99.90
2018-05-02T01:45:47.165Z,99.90
2018-05-02T01:48:14.627Z,99.90
2018-05-02T01:50:42.095Z,99.90
2018-05-02T01:53:09.547Z,99.90
2018-05-02T01:55:36.987Z,99.90
2018-05-02T01:58:04.470Z,99.90
2018-05-02T02:00:31.925Z,99.90
2018-05-02T02:02:59.491Z,99.90
2018-05-02T02:05:26.917Z,99.90
2018-05-02T02:07:54.352Z,99.90
2018-05-02T02:10:21.787Z,99.90
2018-05-02T02:12:49.231Z,99.90
2018-05-02T02:15:16.670Z,99.90
2018-05-02T02:17:44.119Z,99.90
2018-05-02T02:20:12.313Z,99.90
2018-05-02T02:22:39.825Z,99.90
2018-05-02T02:25:07.320Z,99.90
2018-05-02T02:27:34.824Z,99.90
2018-05-02T02:30:02.282Z,99.90
2018-05-02T02:32:29.711Z,99.90
2018-05-02T02:34:57.147Z,99.90
2018-05-02T02:37:25.360Z,99.90
2018-05-02T02:39:52.856Z,99.90
2018-05-02T02:42:20.286Z,99.90
2018-05-02T02:44:47.726Z,99.90
2018-05-02T02:47:15.231Z,99.90
2018-05-02T02:49:42.688Z,99.90
2018-05-02T02:52:10.155Z,99.90
2018-05-02T02:54:37.599Z,99.90
2018-05-02T02:57:05.082Z,99.90
2018-05-02T02:59:32.538Z,99.90
2018-05-02T03:01:59.972Z,99.90
2018-05-02T03:04:27.454Z,99.90
2018-05-02T03:06:54.918Z,99.90
2018-05-02T03:09:22.387Z,99.90
2018-05-02T03:11:49.822Z,99.90
2018-05-02T03:14:17.272Z,99.90
2018-05-02T03:16:44.767Z,99.90
2018-05-02T03:19:12.222Z,99.90
2018-05-02T03:21:39.653Z,99.90
2018-05-02T03:24:07.146Z,99.90
2018-05-02T03:26:34.606Z,99.90
2018-05-02T03:29:02.047Z,99.90
2018-05-02T03:31:29.483Z,99.90
2018-05-02T03:33:57.687Z,99.90
2018-05-02T03:36:25.177Z,99.90
2018-05-02T03:38:52.641Z,99.90
2018-05-02T03:41:20.091Z,99.90
2018-05-02T03:43:47.555Z,99.90
2018-05-02T03:46:14.997Z,99.90
2018-05-02T03:48:42.439Z,99.90
2018-05-02T03:51:10.663Z,99.90
2018-05-02T03:53:38.123Z,99.90
2018-05-02T03:56:05.561Z,99.90
2018-05-02T03:58:32.999Z,99.90
2018-05-02T04:01:13.007Z,99.90
2018-05-02T04:03:52.366Z,99.90
2018-05-02T04:06:32.679Z,99.90
2018-05-02T04:09:00.117Z,99.90
2018-05-02T04:11:27.563Z,99.90
2018-05-02T04:13:55.072Z,99.90
2018-05-02T04:16:22.511Z,99.90
2018-05-02T04:18:50.076Z,99.90
2018-05-02T04:21:17.431Z,99.90
2018-05-02T04:23:44.982Z,99.90
2018-05-02T04:26:12.522Z,99.90
2018-05-02T04:28:40.727Z,99.90
2018-05-02T04:31:08.176Z,99.90
2018-05-02T04:33:35.615Z,99.90
2018-05-02T04:36:03.875Z,99.90
2018-05-02T04:38:31.302Z,99.90
2018-05-02T04:40:58.745Z,99.90
2018-05-02T04:43:26.183Z,99.90
2018-05-02T04:45:54.419Z,99.90
2018-05-02T04:48:21.859Z,99.90
2018-05-02T04:50:49.303Z,99.90
2018-05-02T04:53:16.739Z,99.90
2018-05-02T04:55:44.946Z,99.90
2018-05-02T04:58:12.434Z,99.90
2018-05-02T05:00:39.926Z,99.90
2018-05-02T05:03:07.463Z,99.90
2018-05-02T05:05:34.928Z,99.90
2018-05-02T05:08:02.412Z,99.90
2018-05-02T05:10:29.859Z,99.90
2018-05-02T05:12:57.329Z,99.90
2018-05-02T05:15:24.755Z,99.90
2018-05-02T05:17:52.195Z,99.90
2018-05-02T05:20:19.647Z,99.90
2018-05-02T05:22:47.155Z,99.90
2018-05-02T05:25:14.598Z,99.90
2018-05-02T05:27:42.071Z,99.90
2018-05-02T05:30:09.515Z,99.90
2018-05-02T05:32:36.999Z,99.90
2018-05-02T05:35:04.451Z,99.90
2018-05-02T05:37:31.892Z,99.90
2018-05-02T05:39:59.339Z,99.90
2018-05-02T05:42:27.547Z,99.90
2018-05-02T05:44:55.027Z,99.90
2018-05-02T05:47:22.470Z,99.90
2018-05-02T05:49:49.947Z,99.90
2018-05-02T05:52:17.584Z,99.90
2018-05-02T05:54:45.078Z,99.90
2018-05-02T05:57:12.531Z,99.90
2018-05-02T05:59:40.043Z,99.90
2018-05-02T06:02:08.383Z,99.90
2018-05-02T06:04:35.839Z,99.90
2018-05-02T06:07:03.306Z,99.90
2018-05-02T06:09:30.761Z,99.90
2018-05-02T06:11:58.210Z,99.90
2018-05-02T06:14:25.677Z,99.90
2018-05-02T06:16:53.120Z,99.90
2018-05-02T06:19:20.557Z,99.90
2018-05-02T06:21:48.778Z,99.90
2018-05-02T06:24:16.252Z,99.90
2018-05-02T06:26:43.693Z,99.90
2018-05-02T06:29:11.125Z,99.90
2018-05-02T06:31:38.672Z,99.90
2018-05-02T06:34:06.047Z,99.90
2018-05-02T06:36:34.260Z,99.90
2018-05-02T06:39:01.726Z,99.90
2018-05-02T06:41:29.226Z,99.90
2018-05-02T06:43:56.674Z,99.90
2018-05-02T06:46:24.219Z,99.90
2018-05-02T06:48:51.676Z,99.90
2018-05-02T06:51:19.116Z,99.90
2018-05-02T06:53:46.549Z,99.90
2018-05-02T06:56:14.772Z,99.60
2018-05-02T06:58:42.207Z,99.60
2018-05-02T07:01:09.656Z,98.80
2018-05-02T07:03:37.903Z,98.40
2018-05-02T07:06:05.347Z,98.40
2018-05-02T07:08:32.815Z,99.10
2018-05-02T07:11:00.267Z,98.70
2018-05-02T07:13:27.776Z,98.50
2018-05-02T07:15:55.147Z,98.60
2018-05-02T07:18:22.599Z,98.30
2018-05-02T07:20:50.799Z,96.50
2018-05-02T07:23:18.284Z,96.50
2018-05-02T07:25:45.719Z,96.80
2018-05-02T07:28:13.215Z,96.50
2018-05-02T07:30:40.691Z,96.70
2018-05-02T07:33:09.659Z,96.40
2018-05-02T07:35:37.103Z,96.40
2018-05-02T07:38:04.546Z,95.70
2018-05-02T07:40:32.759Z,96.10
2018-05-02T07:43:00.230Z,96.10
2018-05-02T07:45:27.686Z,96.40
2018-05-02T07:47:55.158Z,96.10
2018-05-02T07:50:22.691Z,97.10
2018-05-02T07:52:50.151Z,96.20
2018-05-02T07:55:17.583Z,96.20
2018-05-02T07:57:45.804Z,93.40
2018-05-02T08:00:13.231Z,93.40
2018-05-02T08:02:41.447Z,90.80
2018-05-02T08:05:08.887Z,90.80
2018-05-02T08:07:36.327Z,88.40
2018-05-02T08:10:04.527Z,90.30
2018-05-02T08:12:31.969Z,90.30
2018-05-02T08:15:00.202Z,85.70
2018-05-02T08:17:27.646Z,85.70
2018-05-02T08:19:55.088Z,85.40
2018-05-02T08:22:22.530Z,82.00
2018-05-02T08:24:50.832Z,84.60
2018-05-02T08:27:18.349Z,84.70
2018-05-02T08:29:45.793Z,82.80
2018-05-02T08:32:13.231Z,83.90
2018-05-02T08:34:40.714Z,80.60
2018-05-02T08:37:08.270Z,80.90
2018-05-02T08:39:35.726Z,81.30
2018-05-02T08:42:03.185Z,80.00
2018-05-02T08:44:30.617Z,79.10
2018-05-02T08:46:58.087Z,79.10
2018-05-02T08:49:25.532Z,79.00
2018-05-02T08:51:54.703Z,75.30
2018-05-02T08:54:22.258Z,75.30
2018-05-02T08:56:49.690Z,77.20
2018-05-02T08:59:17.172Z,80.70
2018-05-02T09:01:44.738Z,78.40
2018-05-02T09:04:12.186Z,77.40
2018-05-02T09:06:39.621Z,74.80
2018-05-02T09:09:07.072Z,74.80
2018-05-02T09:11:34.515Z,73.30
2018-05-02T09:14:02.736Z,72.30
2018-05-02T09:16:30.191Z,72.30
2018-05-02T09:18:57.641Z,75.20
2018-05-02T09:21:25.074Z,72.10
2018-05-02T09:23:53.278Z,70.50
2018-05-02T09:26:20.766Z,70.40
2018-05-02T09:28:48.223Z,69.10
2018-05-02T09:31:15.663Z,70.00
2018-05-02T09:33:43.150Z,70.50
2018-05-02T09:36:10.587Z,71.70
2018-05-02T09:38:38.052Z,70.40
2018-05-02T09:41:05.495Z,70.40
2018-05-02T09:43:33.715Z,69.20
2018-05-02T09:46:01.156Z,69.20
2018-05-02T09:48:28.631Z,72.60
2018-05-02T09:50:56.068Z,68.10
2018-05-02T09:53:23.536Z,65.50
2018-05-02T09:55:50.954Z,70.40
2018-05-02T09:58:18.466Z,67.30
2018-05-02T10:00:45.855Z,68.20
2018-05-02T10:03:13.298Z,66.90
2018-05-02T10:05:40.742Z,65.60
2018-05-02T10:08:08.201Z,65.50
2018-05-02T10:10:35.642Z,66.40
2018-05-02T10:13:03.934Z,70.00
2018-05-02T10:15:31.439Z,70.00
2018-05-02T10:17:58.996Z,68.00
2018-05-02T10:20:26.427Z,68.20
2018-05-02T10:22:53.883Z,66.90
2018-05-02T10:25:21.352Z,70.40
2018-05-02T10:27:48.921Z,69.20
2018-05-02T10:30:16.362Z,71.10
2018-05-02T10:32:44.564Z,65.50
2018-05-02T10:35:12.015Z,65.50
2018-05-02T10:37:39.462Z,67.10
2018-05-02T10:40:07.682Z,69.00
2018-05-02T10:42:35.142Z,69.10
2018-05-02T10:45:02.611Z,65.30
2018-05-02T10:47:30.067Z,64.90
2018-05-02T10:49:57.526Z,65.50
2018-05-02T10:52:25.047Z,66.40
2018-05-02T10:54:53.303Z,69.70
2018-05-02T10:57:20.742Z,69.60
2018-05-02T10:59:48.295Z,64.50
2018-05-02T11:02:15.746Z,64.20
2018-05-02T11:04:43.223Z,62.10
2018-05-02T11:07:10.684Z,62.00
2018-05-02T11:09:38.138Z,68.50
2018-05-02T11:12:05.608Z,65.40
2018-05-02T11:14:33.055Z,65.00
2018-05-02T11:17:00.490Z,65.90
2018-05-02T11:19:27.939Z,62.00
2018-05-02T11:21:56.177Z,63.00
2018-05-02T11:24:23.628Z,62.80
2018-05-02T11:26:51.066Z,62.10
2018-05-02T11:29:18.515Z,63.80
2018-05-02T11:31:45.955Z,68.60
2018-05-02T11:34:14.290Z,66.30
2018-05-02T11:36:41.731Z,66.20
2018-05-02T11:39:09.178Z,68.70
2018-05-02T11:41:36.616Z,70.20
2018-05-02T11:44:04.855Z,67.30
2018-05-02T11:46:32.286Z,67.30
2018-05-02T11:48:59.731Z,70.10
2018-05-02T11:51:27.926Z,71.00
2018-05-02T11:53:55.426Z,71.00
2018-05-02T11:56:22.860Z,71.50
2018-05-02T11:58:50.302Z,67.20
2018-05-02T12:01:17.799Z,69.00
2018-05-02T12:03:45.252Z,69.90
2018-05-02T12:06:12.702Z,72.10
2018-05-02T12:08:40.168Z,69.20
2018-05-02T12:11:07.657Z,66.00
2018-05-02T12:13:35.102Z,65.10
2018-05-02T12:16:02.647Z,66.70
2018-05-02T12:18:30.927Z,67.30
2018-05-02T12:20:58.373Z,67.30
2018-05-02T12:23:25.878Z,65.90
2018-05-02T12:25:53.390Z,65.20
2018-05-02T12:28:21.614Z,65.40
2018-05-02T12:30:49.096Z,65.40
2018-05-02T12:33:16.538Z,64.90
2018-05-02T12:35:43.994Z,64.60
2018-05-02T12:38:11.465Z,65.10
2018-05-02T12:40:38.924Z,64.40
2018-05-02T12:43:06.459Z,64.20
2018-05-02T12:45:33.946Z,62.90
2018-05-02T12:48:01.414Z,64.90
2018-05-02T12:50:28.945Z,68.10
2018-05-02T12:52:56.396Z,63.90
2018-05-02T12:55:24.605Z,64.50
2018-05-02T12:57:52.031Z,64.50
2018-05-02T13:00:19.535Z,67.10
2018-05-02T13:02:46.999Z,68.50
2018-05-02T13:05:14.453Z,67.50
2018-05-02T13:07:41.911Z,66.20
2018-05-02T13:10:09.371Z,68.30
2018-05-02T13:12:36.837Z,65.60
2018-05-02T13:15:04.307Z,65.40
2018-05-02T13:17:31.767Z,69.20
2018-05-02T13:19:59.219Z,67.40
2018-05-02T13:22:26.698Z,65.90
2018-05-02T13:24:54.256Z,67.70
2018-05-02T13:27:21.693Z,68.50
2018-05-02T13:29:49.147Z,70.00
2018-05-02T13:32:16.567Z,70.00
2018-05-02T13:34:44.011Z,70.70
2018-05-02T13:37:11.447Z,67.70
2018-05-02T13:39:38.923Z,68.60
2018-05-02T13:42:06.349Z,68.20
2018-05-02T13:44:33.794Z,70.60
2018-05-02T13:47:02.019Z,71.10
2018-05-02T13:49:29.459Z,71.00
2018-05-02T13:51:56.933Z,69.40
2018-05-02T13:54:24.411Z,71.10
2018-05-02T13:56:51.870Z,69.60
2018-05-02T13:59:19.306Z,71.70
2018-05-02T14:01:47.527Z,70.10
2018-05-02T14:04:14.959Z,70.10
2018-05-02T14:06:42.419Z,69.90
2018-05-02T14:09:09.855Z,69.80
2018-05-02T14:11:37.302Z,69.50
2018-05-02T14:14:05.520Z,68.70
2018-05-02T14:16:32.977Z,68.80
2018-05-02T14:19:00.610Z,68.40
2018-05-02T14:21:28.006Z,68.90
2018-05-02T14:23:55.500Z,70.60
2018-05-02T14:26:22.948Z,69.50
2018-05-02T14:28:50.392Z,70.30
2018-05-02T14:31:17.864Z,71.40
2018-05-02T14:33:45.324Z,71.20
2018-05-02T14:36:12.788Z,69.70
2018-05-02T14:38:40.247Z,69.00
2018-05-02T14:41:07.707Z,70.10
2018-05-02T14:43:35.162Z,67.70
2018-05-02T14:46:02.613Z,71.70
2018-05-02T14:48:30.099Z,71.20
2018-05-02T14:50:57.538Z,69.50
2018-05-02T14:53:25.015Z,70.60
2018-05-02T14:55:52.454Z,69.60
2018-05-02T14:58:19.890Z,69.80
2018-05-02T15:00:47.340Z,69.70
2018-05-02T15:03:15.544Z,68.80
2018-05-02T15:05:43.033Z,68.80
2018-05-02T15:08:10.540Z,70.60
2018-05-02T15:10:37.959Z,68.70
2018-05-02T15:13:05.416Z,70.00
2018-05-02T15:15:32.873Z,68.70
2018-05-02T15:18:00.357Z,68.90
2018-05-02T15:20:27.799Z,70.60
2018-05-02T15:22:55.251Z,70.90
2018-05-02T15:25:22.701Z,73.40
2018-05-02T15:27:50.262Z,70.50
2018-05-02T15:30:17.678Z,70.40
2018-05-02T15:32:45.118Z,69.50
2018-05-02T15:35:12.572Z,67.80
2018-05-02T15:37:40.011Z,69.30
2018-05-02T15:40:07.503Z,70.20
2018-05-02T15:42:35.134Z,69.00
2018-05-02T15:45:02.580Z,69.30
2018-05-02T15:47:30.775Z,70.50
2018-05-02T15:49:58.252Z,70.40
2018-05-02T15:52:25.698Z,70.70
2018-05-02T15:54:53.135Z,69.30
2018-05-02T15:57:21.363Z,67.30
2018-05-02T15:59:48.823Z,67.20
2018-05-02T16:02:16.278Z,66.40
2018-05-02T16:04:43.711Z,66.20
2018-05-02T16:07:11.203Z,64.30
2018-05-02T16:09:38.663Z,62.60
2018-05-02T16:12:06.134Z,65.40
2018-05-02T16:14:33.567Z,65.10
2018-05-02T16:17:01.129Z,64.40
2018-05-02T16:19:28.564Z,66.00
2018-05-02T16:21:56.870Z,66.60
2018-05-02T16:24:24.290Z,66.60
2018-05-02T16:26:51.742Z,66.70
2018-05-02T16:29:19.945Z,66.40
2018-05-02T16:31:48.170Z,68.90
2018-05-02T16:34:15.602Z,68.90
2018-05-02T16:36:43.097Z,66.40
2018-05-02T16:39:10.535Z,67.30
2018-05-02T16:41:38.018Z,69.30
2018-05-02T16:44:05.482Z,68.70
2018-05-02T16:46:33.050Z,69.70
2018-05-02T16:49:00.483Z,68.80
2018-05-02T16:51:27.934Z,67.60
2018-05-02T16:53:55.407Z,67.30
2018-05-02T16:56:22.843Z,68.40
2018-05-02T16:58:51.050Z,68.40
2018-05-02T17:01:18.492Z,68.30
2018-05-02T17:03:45.938Z,68.90
2018-05-02T17:06:14.142Z,68.10
2018-05-02T17:08:41.634Z,68.10
2018-05-02T17:11:09.108Z,69.10
2018-05-02T17:13:36.543Z,67.80
2018-05-02T17:16:04.019Z,68.70
2018-05-02T17:18:31.458Z,68.60
2018-05-02T17:20:58.903Z,69.20
2018-05-02T17:23:26.350Z,69.00
2018-05-02T17:25:54.547Z,72.00
2018-05-02T17:28:22.003Z,72.00
2018-05-02T17:30:49.435Z,69.00
2018-05-02T17:33:17.651Z,71.10
2018-05-02T17:35:45.088Z,71.00
2018-05-02T17:38:12.535Z,68.20
2018-05-02T17:40:39.966Z,68.20
2018-05-02T17:43:07.418Z,68.30
2018-05-02T17:45:34.857Z,68.90
2018-05-02T17:48:02.290Z,70.00
2018-05-02T17:50:30.493Z,70.60
2018-05-02T17:52:57.940Z,70.30
2018-05-02T17:55:25.406Z,69.00
2018-05-02T17:57:53.612Z,70.30
2018-05-02T18:00:21.070Z,70.30
2018-05-02T18:02:48.519Z,69.30
2018-05-02T18:05:15.958Z,70.30
2018-05-02T18:07:44.183Z,70.40
2018-05-02T18:10:11.658Z,70.50
2018-05-02T18:12:39.107Z,70.80
2018-05-02T18:15:06.549Z,71.60
2018-05-02T18:17:34.011Z,72.10
2018-05-02T18:20:01.446Z,72.10
2018-05-02T18:22:28.890Z,72.90
2018-05-02T18:24:57.091Z,72.90
2018-05-02T18:27:24.543Z,72.90
2018-05-02T18:29:52.755Z,73.10
2018-05-02T18:32:20.191Z,73.10
2018-05-02T18:34:47.640Z,72.60
2018-05-02T18:37:15.840Z,74.40
2018-05-02T18:39:43.294Z,74.40
2018-05-02T18:42:10.728Z,72.90
2018-05-02T18:44:38.165Z,74.10
2018-05-02T18:47:05.694Z,74.20
2018-05-02T18:49:33.043Z,74.20
2018-05-02T18:52:00.487Z,74.10
2018-05-02T18:54:28.687Z,74.60
2018-05-02T18:56:56.118Z,73.90
2018-05-02T18:59:24.339Z,74.60
2018-05-02T19:01:51.791Z,74.60
2018-05-02T19:04:19.235Z,76.40
2018-05-02T19:06:46.679Z,76.50
2018-05-02T19:09:14.903Z,75.40
2018-05-02T19:11:42.343Z,75.40
2018-05-02T19:14:09.788Z,76.00
2018-05-02T19:16:38.108Z,76.00
2018-05-02T19:19:11.162Z,76.00
2018-05-02T19:21:39.361Z,76.00
2018-05-02T19:24:06.934Z,75.90
2018-05-02T19:26:36.131Z,76.20
2018-05-02T19:29:03.583Z,76.20
2018-05-02T19:31:50.718Z,77.00
2018-05-02T19:34:18.169Z,77.10
2018-05-02T19:36:45.612Z,77.60
2018-05-02T19:39:13.092Z,77.00
2018-05-02T19:41:46.129Z,79.30
2018-05-02T19:44:13.603Z,77.70
2018-05-02T19:46:41.810Z,77.90
2018-05-02T19:49:09.238Z,77.80
2018-05-02T19:51:43.258Z,80.30
2018-05-02T19:54:11.567Z,80.50
2018-05-02T19:56:38.986Z,80.40
2018-05-02T19:59:07.195Z,83.30
2018-05-02T20:01:40.366Z,83.30
2018-05-02T20:04:08.606Z,80.80
2018-05-02T20:06:36.048Z,80.80
2018-05-02T20:09:09.103Z,83.40
2018-05-02T20:14:38.514Z,80.00
2018-05-02T20:17:05.958Z,81.90
2018-05-02T20:19:34.775Z,86.50
2018-05-02T20:22:02.317Z,86.00
2018-05-02T20:24:30.523Z,83.90
2018-05-02T20:26:57.958Z,83.80
2018-05-02T20:29:26.169Z,82.40
2018-05-02T20:31:53.601Z,82.40
2018-05-02T20:34:21.823Z,84.50
2018-05-02T20:36:49.264Z,84.40
2018-05-02T20:39:16.702Z,84.90
2018-05-02T20:41:45.006Z,84.30
2018-05-02T20:44:12.433Z,84.30
2018-05-02T20:46:40.639Z,86.00
2018-05-02T20:49:08.080Z,86.00
2018-05-02T20:51:36.283Z,87.30
2018-05-02T20:54:03.724Z,87.20
2018-05-02T20:56:31.932Z,84.90
2018-05-02T20:58:59.374Z,84.90
2018-05-02T21:01:26.809Z,86.30
2018-05-02T21:03:55.061Z,86.80
2018-05-02T21:06:22.486Z,86.80
2018-05-02T21:08:49.926Z,86.90
2018-05-02T21:11:18.138Z,87.40
2018-05-02T21:13:45.582Z,87.30
2018-05-02T21:16:13.033Z,86.10
2018-05-02T21:18:40.471Z,87.30
2018-05-02T21:21:08.683Z,88.40
2018-05-02T21:23:36.118Z,88.00
2018-05-02T21:26:04.329Z,85.90
2018-05-02T21:28:31.775Z,85.90
2018-05-02T21:31:00.023Z,87.20
2018-05-02T21:33:27.423Z,87.20
2018-05-02T21:35:54.873Z,87.20
2018-05-02T21:38:22.302Z,87.70
2018-05-02T21:40:49.748Z,86.60
2018-05-02T21:43:17.171Z,87.30
2018-05-02T21:45:44.614Z,86.70
2018-05-02T21:48:12.054Z,88.20
2018-05-02T21:50:40.268Z,87.50
2018-05-02T21:53:07.728Z,87.50
2018-05-02T21:55:35.158Z,90.10
2018-05-02T21:58:03.362Z,88.30
2018-05-02T22:00:30.802Z,88.30
2018-05-02T22:02:58.998Z,90.20
2018-05-02T22:05:26.467Z,90.10
2018-05-02T22:07:54.647Z,90.20
2018-05-02T22:10:22.090Z,90.20
2018-05-02T22:12:50.183Z,90.10
2018-05-02T22:15:17.619Z,90.30
2018-05-02T22:17:45.825Z,90.70
2018-05-02T22:20:13.286Z,90.70
2018-05-02T22:22:40.723Z,91.00
2018-05-02T22:25:08.957Z,90.70
2018-05-02T22:27:36.387Z,90.60
2018-05-02T22:30:03.836Z,91.30
2018-05-02T22:32:31.262Z,91.00
2018-05-02T22:34:58.710Z,90.60
2018-05-02T22:37:26.153Z,90.80
2018-05-02T22:39:53.607Z,91.20
2018-05-02T22:42:21.034Z,90.20
2018-05-02T22:44:48.475Z,90.80
2018-05-02T22:47:16.688Z,90.80
2018-05-02T22:49:44.143Z,90.60
2018-05-02T22:52:11.582Z,90.60
2018-05-02T22:54:39.789Z,91.00
2018-05-02T22:57:07.235Z,91.00
2018-05-02T22:59:34.690Z,91.00
2018-05-02T23:02:02.894Z,92.10
2018-05-02T23:04:30.351Z,92.10
2018-05-02T23:06:57.873Z,91.10
2018-05-02T23:09:25.998Z,90.70
2018-05-02T23:11:53.452Z,90.70
2018-05-02T23:14:20.913Z,90.90
2018-05-02T23:16:48.347Z,92.30
2018-05-02T23:19:16.555Z,90.80
2018-05-02T23:21:43.998Z,90.80
2018-05-02T23:24:11.438Z,90.80
2018-05-02T23:26:38.878Z,91.60
2018-05-02T23:29:06.326Z,92.40
2018-05-02T23:31:33.771Z,91.60
2018-05-02T23:34:01.209Z,91.40
2018-05-02T23:36:28.722Z,91.40
2018-05-02T23:38:56.163Z,91.40
2018-05-02T23:41:23.680Z,91.80
2018-05-02T23:43:51.058Z,92.90
2018-05-02T23:46:18.501Z,91.90
2018-05-02T23:48:46.694Z,92.50
2018-05-02T23:51:14.142Z,92.40
2018-05-02T23:53:42.346Z,92.30
2018-05-02T23:56:09.799Z,92.30
2018-05-02T23:58:37.235Z,92.00
